Time;durP1;ratioP1;P1;durP2;ratioP2;P2;SDS_P1;SDS_P2;PMS_P1;PMS_P2;Temp;Humidity;BMP_temperature;BMP_pressure;BME280_temperature;BME280_humidity;BME280_pressure;Samples;Min_cycle;Max_cycle;Signal;HPM_P1;HPM_P2
2023/11/21 00:02:27;;;;;;;3.33;3.17;;;;;;;;;;6282092;28;20690;-70
2023/11/21 00:05:33;;;;;;;3.47;3.17;;;;;;;;;;6280631;28;20403;-70
2023/11/21 00:08:36;;;;;;;3.10;3.00;;;;;;;;;;6281539;28;20496;-69
2023/11/21 00:11:40;;;;;;;2.63;2.47;;;;;;;;;;6281256;28;20317;-69
2023/11/21 00:14:44;;;;;;;3.03;2.90;;;;;;;;;;6281358;28;20309;-70
2023/11/21 00:17:48;;;;;;;3.03;2.93;;;;;;;;;;6263612;28;20337;-70
2023/11/21 00:20:53;;;;;;;3.03;2.90;;;;;;;;;;6281590;28;20342;-68
2023/11/21 00:23:57;;;;;;;2.60;2.50;;;;;;;;;;6281177;28;20462;-70
2023/11/21 00:27:00;;;;;;;2.50;2.50;;;;;;;;;;6281167;28;20298;-69
2023/11/21 00:30:06;;;;;;;2.43;2.43;;;;;;;;;;6280308;28;20329;-69
2023/11/21 00:33:10;;;;;;;2.50;2.50;;;;;;;;;;6278170;28;20345;-70
2023/11/21 00:36:15;;;;;;;2.50;2.40;;;;;;;;;;6271749;28;20289;-69
2023/11/21 00:39:19;;;;;;;2.43;2.43;;;;;;;;;;6271494;28;20302;-72
2023/11/21 00:42:22;;;;;;;2.37;2.27;;;;;;;;;;6239291;28;20237;-69
2023/11/21 00:45:27;;;;;;;2.50;2.40;;;;;;;;;;6244981;28;20353;-69
2023/11/21 00:48:30;;;;;;;2.10;2.10;;;;;;;;;;6280700;28;20285;-71
2023/11/21 00:51:36;;;;;;;2.17;2.17;;;;;;;;;;6261684;28;20290;-69
2023/11/21 00:54:39;;;;;;;2.50;2.40;;;;;;;;;;6265928;28;20391;-69
2023/11/21 00:57:43;;;;;;;2.27;2.17;;;;;;;;;;6259507;28;20437;-79
2023/11/21 01:00:48;;;;;;;2.20;2.20;;;;;;;;;;6261883;28;20294;-69
2023/11/21 01:03:54;;;;;;;2.40;2.40;;;;;;;;;;6279766;28;20428;-71
2023/11/21 01:06:59;;;;;;;2.70;2.60;;;;;;;;;;6279453;28;20303;-69
2023/11/21 01:10:05;;;;;;;2.13;2.13;;;;;;;;;;6279714;28;20326;-70
2023/11/21 01:13:10;;;;;;;2.60;2.50;;;;;;;;;;6260270;28;20321;-69
2023/11/21 01:16:14;;;;;;;2.23;2.23;;;;;;;;;;6266461;28;20298;-70
2023/11/21 01:19:18;;;;;;;2.30;2.30;;;;;;;;;;6269548;28;20305;-69
2023/11/21 01:22:25;;;;;;;2.33;2.33;;;;;;;;;;6279529;28;20302;-69
2023/11/21 01:25:29;;;;;;;2.23;2.20;;;;;;;;;;6261441;28;20497;-70
2023/11/21 01:28:33;;;;;;;2.23;2.23;;;;;;;;;;6260608;28;20526;-69
2023/11/21 01:31:37;;;;;;;2.33;2.33;;;;;;;;;;6278061;28;20590;-69
2023/11/21 01:34:42;;;;;;;2.30;2.30;;;;;;;;;;6279276;28;20305;-70
2023/11/21 01:37:48;;;;;;;2.43;2.43;;;;;;;;;;6279395;28;20305;-69
2023/11/21 01:40:52;;;;;;;2.37;2.37;;;;;;;;;;6279004;28;20285;-69
2023/11/21 01:43:55;;;;;;;2.63;2.63;;;;;;;;;;6257944;28;20245;-69
2023/11/21 01:46:59;;;;;;;2.33;2.30;;;;;;;;;;6279641;28;20552;-71
2023/11/21 01:50:04;;;;;;;2.90;2.80;;;;;;;;;;6279589;28;20305;-70
2023/11/21 01:53:13;;;;;;;2.60;2.60;;;;;;;;;;6279378;28;20618;-69
2023/11/21 01:56:17;;;;;;;2.40;2.40;;;;;;;;;;6279347;28;20302;-71
2023/11/21 01:59:22;;;;;;;2.60;2.57;;;;;;;;;;6292415;28;20305;-71
2023/11/21 02:02:26;;;;;;;2.43;2.40;;;;;;;;;;6251442;28;20583;-70
2023/11/21 02:05:30;;;;;;;2.40;2.40;;;;;;;;;;6253083;28;20303;-69
2023/11/21 02:08:37;;;;;;;2.60;2.60;;;;;;;;;;6233499;28;20291;-70
2023/11/21 02:11:41;;;;;;;2.90;2.90;;;;;;;;;;6244990;28;20431;-69
2023/11/21 02:14:46;;;;;;;2.53;2.53;;;;;;;;;;6253966;28;20299;-71
2023/11/21 02:17:51;;;;;;;2.50;2.40;;;;;;;;;;6253620;28;20290;-68
2023/11/21 02:20:57;;;;;;;2.60;2.60;;;;;;;;;;6268880;28;20307;-68
2023/11/21 02:24:02;;;;;;;2.33;2.33;;;;;;;;;;6252575;28;20531;-70
2023/11/21 02:27:06;;;;;;;2.80;2.70;;;;;;;;;;6252630;28;20295;-68
2023/11/21 02:30:13;;;;;;;2.17;2.17;;;;;;;;;;6258878;28;20362;-68
2023/11/21 02:33:17;;;;;;;2.47;2.40;;;;;;;;;;6256305;28;20298;-69
2023/11/21 02:36:22;;;;;;;2.50;2.50;;;;;;;;;;6256791;28;20291;-68
2023/11/21 02:39:27;;;;;;;2.30;2.30;;;;;;;;;;6256321;28;20294;-70
2023/11/21 02:42:31;;;;;;;2.30;2.30;;;;;;;;;;6255618;28;20307;-69
2023/11/21 02:45:35;;;;;;;2.23;2.23;;;;;;;;;;6255675;28;20257;-69
2023/11/21 02:48:38;;;;;;;2.40;2.40;;;;;;;;;;6257086;28;20295;-68
2023/11/21 02:51:43;;;;;;;2.43;2.43;;;;;;;;;;6255662;28;20306;-69
2023/11/21 02:54:48;;;;;;;2.40;2.40;;;;;;;;;;6254677;28;20224;-71
2023/11/21 02:57:52;;;;;;;2.30;2.30;;;;;;;;;;6256057;28;20310;-69
2023/11/21 03:00:56;;;;;;;2.27;2.27;;;;;;;;;;6258575;28;20314;-68
2023/11/21 03:04:00;;;;;;;2.50;2.50;;;;;;;;;;6258743;28;20226;-69
2023/11/21 03:07:05;;;;;;;2.20;2.20;;;;;;;;;;6274772;28;20489;-69
2023/11/21 03:10:10;;;;;;;2.40;2.40;;;;;;;;;;6282715;28;20396;-70
2023/11/21 03:13:14;;;;;;;2.60;2.50;;;;;;;;;;6297719;28;20318;-71
2023/11/21 03:16:19;;;;;;;2.33;2.33;;;;;;;;;;6278446;28;20340;-70
2023/11/21 03:19:23;;;;;;;2.50;2.50;;;;;;;;;;6281209;28;20293;-69
2023/11/21 03:22:27;;;;;;;2.60;2.60;;;;;;;;;;6280643;28;20282;-71
2023/11/21 03:25:32;;;;;;;2.30;2.30;;;;;;;;;;6282346;28;20297;-69
2023/11/21 03:28:36;;;;;;;2.43;2.43;;;;;;;;;;6282278;28;20302;-69
2023/11/21 03:31:39;;;;;;;2.60;2.50;;;;;;;;;;6285293;28;20560;-69
2023/11/21 03:34:56;;;;;;;2.70;2.60;;;;;;;;;;6263861;28;20293;-69
2023/11/21 03:38:00;;;;;;;2.50;2.50;;;;;;;;;;6282106;28;20306;-68
2023/11/21 03:41:09;;;;;;;2.70;2.70;;;;;;;;;;6280336;28;20301;-69
2023/11/21 03:44:14;;;;;;;2.63;2.63;;;;;;;;;;6297100;28;20233;-69
2023/11/21 03:47:19;;;;;;;2.60;2.60;;;;;;;;;;6281947;28;20574;-68
2023/11/21 03:50:23;;;;;;;2.60;2.50;;;;;;;;;;6281334;28;20306;-69
2023/11/21 03:53:26;;;;;;;2.77;2.77;;;;;;;;;;6273641;28;20583;-69
2023/11/21 03:56:31;;;;;;;2.70;2.70;;;;;;;;;;6293570;28;20309;-69
2023/11/21 03:59:36;;;;;;;2.53;2.53;;;;;;;;;;6277668;28;20330;-68
2023/11/21 04:02:40;;;;;;;2.67;2.67;;;;;;;;;;6277619;28;20306;-70
2023/11/21 04:05:45;;;;;;;3.07;2.97;;;;;;;;;;6281685;28;20602;-68
2023/11/21 04:08:49;;;;;;;3.00;2.90;;;;;;;;;;6275780;28;20298;-72
2023/11/21 04:11:55;;;;;;;2.87;2.80;;;;;;;;;;6291842;28;20293;-69
2023/11/21 04:14:59;;;;;;;3.07;3.07;;;;;;;;;;6281647;28;20290;-70
2023/11/21 04:18:02;;;;;;;3.17;3.07;;;;;;;;;;6280774;28;20306;-70
2023/11/21 04:21:07;;;;;;;3.23;3.13;;;;;;;;;;6281767;28;20314;-69
2023/11/21 04:24:11;;;;;;;3.07;2.97;;;;;;;;;;6280595;28;20369;-69
2023/11/21 04:27:17;;;;;;;3.00;2.90;;;;;;;;;;6283950;28;20305;-69
2023/11/21 04:30:21;;;;;;;2.87;2.87;;;;;;;;;;6281515;28;20507;-69
2023/11/21 04:33:25;;;;;;;2.60;2.60;;;;;;;;;;6280512;28;20639;-69
2023/11/21 04:36:30;;;;;;;2.73;2.63;;;;;;;;;;6281261;28;20302;-72
2023/11/21 04:39:34;;;;;;;2.73;2.70;;;;;;;;;;6279570;28;20553;-69
2023/11/21 04:42:39;;;;;;;2.90;2.80;;;;;;;;;;6280144;28;20606;-69
2023/11/21 04:45:43;;;;;;;2.83;2.40;;;;;;;;;;6280772;28;20295;-69
2023/11/21 04:48:46;;;;;;;2.67;2.67;;;;;;;;;;6280930;28;20475;-70
2023/11/21 04:51:50;;;;;;;2.27;2.27;;;;;;;;;;6280243;28;20305;-69
2023/11/21 04:54:57;;;;;;;2.60;2.60;;;;;;;;;;6261828;28;20487;-71
2023/11/21 04:58:04;;;;;;;2.60;2.53;;;;;;;;;;6278370;28;20491;-69
2023/11/21 05:01:08;;;;;;;2.30;2.20;;;;;;;;;;6294841;28;20708;-69
2023/11/21 05:04:12;;;;;;;2.83;2.63;;;;;;;;;;6279459;28;20305;-69
2023/11/21 05:07:16;;;;;;;2.30;2.30;;;;;;;;;;6280217;28;20245;-70
2023/11/21 05:10:22;;;;;;;2.10;2.10;;;;;;;;;;6278772;28;20301;-70
2023/11/21 05:13:27;;;;;;;1.90;1.80;;;;;;;;;;6280410;28;20290;-69
2023/11/21 05:16:31;;;;;;;2.00;1.97;;;;;;;;;;6280295;28;20326;-70
2023/11/21 05:19:36;;;;;;;2.03;2.03;;;;;;;;;;6279568;28;20291;-69
2023/11/21 05:22:40;;;;;;;2.10;2.00;;;;;;;;;;6280186;28;20311;-72
2023/11/21 05:25:43;;;;;;;1.93;1.93;;;;;;;;;;6279278;28;20510;-71
2023/11/21 05:28:48;;;;;;;2.00;2.00;;;;;;;;;;6279509;28;20607;-69
2023/11/21 05:31:52;;;;;;;2.07;2.07;;;;;;;;;;6279855;28;20333;-70
2023/11/21 05:34:56;;;;;;;1.97;1.97;;;;;;;;;;6278978;28;20321;-68
2023/11/21 05:38:00;;;;;;;2.13;2.13;;;;;;;;;;6278875;28;20297;-70
2023/11/21 05:41:04;;;;;;;1.97;1.97;;;;;;;;;;6279657;28;20487;-69
2023/11/21 05:44:09;;;;;;;1.93;1.93;;;;;;;;;;6279288;28;20307;-69
2023/11/21 05:47:14;;;;;;;1.90;1.90;;;;;;;;;;6278058;28;20306;-68
2023/11/21 05:50:18;;;;;;;2.03;2.03;;;;;;;;;;6277648;28;20295;-69
2023/11/21 05:53:22;;;;;;;1.83;1.83;;;;;;;;;;6277665;28;20290;-69
2023/11/21 05:56:25;;;;;;;2.13;2.13;;;;;;;;;;6279321;28;20298;-69
2023/11/21 05:59:30;;;;;;;2.00;2.00;;;;;;;;;;6274914;28;20690;-70
2023/11/21 06:02:35;;;;;;;1.97;1.97;;;;;;;;;;6276150;28;20630;-70
2023/11/21 06:05:38;;;;;;;1.80;1.80;;;;;;;;;;6290299;28;20250;-70
2023/11/21 06:08:42;;;;;;;2.10;2.10;;;;;;;;;;6283879;28;20326;-70
2023/11/21 06:11:46;;;;;;;2.03;1.87;;;;;;;;;;6284776;28;20364;-70
2023/11/21 06:14:51;;;;;;;1.87;1.87;;;;;;;;;;6283619;28;20369;-68
2023/11/21 06:17:55;;;;;;;2.10;2.10;;;;;;;;;;6283107;28;20306;-69
2023/11/21 06:21:00;;;;;;;2.00;2.00;;;;;;;;;;6284166;28;20302;-69
2023/11/21 06:24:04;;;;;;;1.90;1.90;;;;;;;;;;6265800;28;20297;-69
2023/11/21 06:27:08;;;;;;;2.00;2.00;;;;;;;;;;6267639;28;20337;-69
2023/11/21 06:30:15;;;;;;;2.10;2.10;;;;;;;;;;6291462;28;20298;-72
2023/11/21 06:33:19;;;;;;;2.40;2.40;;;;;;;;;;6265120;28;20314;-71
2023/11/21 06:36:22;;;;;;;2.10;2.10;;;;;;;;;;6283436;28;20333;-69
2023/11/21 06:39:27;;;;;;;2.00;2.00;;;;;;;;;;6283311;28;20302;-69
2023/11/21 06:42:50;;;;;;;2.13;2.13;;;;;;;;;;6282848;28;20290;-69
2023/11/21 06:45:55;;;;;;;2.20;2.20;;;;;;;;;;6264467;28;20232;-69
2023/11/21 06:48:59;;;;;;;2.50;2.40;;;;;;;;;;6282689;28;20445;-69
2023/11/21 06:52:03;;;;;;;2.40;2.40;;;;;;;;;;6283500;28;20301;-69
2023/11/21 06:55:09;;;;;;;2.40;2.30;;;;;;;;;;6282188;28;20298;-70
2023/11/21 06:58:14;;;;;;;2.60;2.40;;;;;;;;;;6281551;28;20286;-69
2023/11/21 07:01:19;;;;;;;2.20;2.20;;;;;;;;;;6283091;28;20622;-69
2023/11/21 07:04:24;;;;;;;2.30;2.30;;;;;;;;;;6281791;28;20438;-70
2023/11/21 07:07:28;;;;;;;3.57;2.97;;;;;;;;;;6263572;28;20373;-68
2023/11/21 07:10:32;;;;;;;2.80;2.70;;;;;;;;;;6282755;28;20299;-70
2023/11/21 07:13:36;;;;;;;2.40;2.40;;;;;;;;;;6263785;28;20264;-68
2023/11/21 07:16:41;;;;;;;2.53;2.53;;;;;;;;;;6282941;28;20297;-69
2023/11/21 07:19:45;;;;;;;2.70;2.60;;;;;;;;;;6281260;28;20309;-68
2023/11/21 07:22:49;;;;;;;2.73;2.53;;;;;;;;;;6265064;28;20301;-70
2023/11/21 07:25:52;;;;;;;2.33;2.30;;;;;;;;;;6282701;28;20301;-69
2023/11/21 07:28:56;;;;;;;2.60;2.50;;;;;;;;;;6281664;28;20325;-68
2023/11/21 07:32:01;;;;;;;2.53;2.53;;;;;;;;;;6282416;28;20715;-69
2023/11/21 07:35:07;;;;;;;2.60;2.50;;;;;;;;;;6282329;28;20289;-69
2023/11/21 07:38:11;;;;;;;2.40;2.30;;;;;;;;;;6282536;28;20290;-70
2023/11/21 07:41:16;;;;;;;2.50;2.50;;;;;;;;;;6283013;28;20306;-70
2023/11/21 07:44:33;;;;;;;2.73;2.63;;;;;;;;;;6280960;28;20309;-71
2023/11/21 07:47:39;;;;;;;3.03;2.30;;;;;;;;;;6285660;28;20401;-72
2023/11/21 07:50:43;;;;;;;2.30;2.27;;;;;;;;;;6282071;28;20303;-71
2023/11/21 07:53:47;;;;;;;2.10;2.10;;;;;;;;;;6282813;28;20717;-73
2023/11/21 07:56:50;;;;;;;2.40;2.40;;;;;;;;;;6257033;28;20307;-69
2023/11/21 07:59:55;;;;;;;2.73;2.70;;;;;;;;;;6263877;28;20297;-70
2023/11/21 08:03:00;;;;;;;2.33;2.30;;;;;;;;;;6280818;28;20296;-69
2023/11/21 08:06:05;;;;;;;2.30;2.17;;;;;;;;;;6281836;28;20314;-70
2023/11/21 08:09:10;;;;;;;2.30;2.30;;;;;;;;;;6274731;28;20474;-69
2023/11/21 08:12:15;;;;;;;2.23;2.20;;;;;;;;;;6281821;28;20502;-69
2023/11/21 08:15:19;;;;;;;2.30;2.20;;;;;;;;;;6280479;28;20302;-70
2023/11/21 08:18:24;;;;;;;2.47;2.33;;;;;;;;;;6281702;28;20314;-72
2023/11/21 08:21:28;;;;;;;2.00;2.00;;;;;;;;;;6282227;28;20286;-69
2023/11/21 08:24:32;;;;;;;2.30;2.30;;;;;;;;;;6271140;28;20841;-70
2023/11/21 08:27:36;;;;;;;2.87;2.17;;;;;;;;;;6276419;28;20694;-70
2023/11/21 08:30:41;;;;;;;1.90;1.90;;;;;;;;;;6291014;28;20293;-70
2023/11/21 08:33:46;;;;;;;2.30;2.20;;;;;;;;;;6278033;28;20610;-70
2023/11/21 08:36:51;;;;;;;1.80;1.80;;;;;;;;;;6289582;28;20560;-74
2023/11/21 08:39:55;;;;;;;2.07;2.00;;;;;;;;;;6262673;28;20301;-69
2023/11/21 08:42:59;;;;;;;2.03;2.03;;;;;;;;;;6281484;28;20291;-70
2023/11/21 08:46:03;;;;;;;2.20;2.10;;;;;;;;;;6280038;28;20286;-69
2023/11/21 08:49:08;;;;;;;4.10;2.10;;;;;;;;;;6286004;28;20245;-69
2023/11/21 08:52:12;;;;;;;2.40;2.30;;;;;;;;;;6281292;28;20301;-68
2023/11/21 08:55:16;;;;;;;2.70;2.60;;;;;;;;;;6279566;28;20309;-68
2023/11/21 08:58:20;;;;;;;2.30;2.30;;;;;;;;;;6278378;28;20290;-69
2023/11/21 09:01:24;;;;;;;2.40;2.40;;;;;;;;;;6280019;28;21825;-69
2023/11/21 09:04:30;;;;;;;2.60;2.50;;;;;;;;;;6278111;28;20329;-68
2023/11/21 09:07:33;;;;;;;2.70;2.60;;;;;;;;;;6280882;28;20575;-69
2023/11/21 09:10:39;;;;;;;2.20;2.10;;;;;;;;;;6279446;28;20298;-68
2023/11/21 09:13:43;;;;;;;2.17;2.03;;;;;;;;;;6279872;28;20315;-68
2023/11/21 09:16:46;;;;;;;2.10;2.10;;;;;;;;;;6280237;28;20317;-69
2023/11/21 09:19:52;;;;;;;1.90;1.90;;;;;;;;;;6279947;28;20286;-70
2023/11/21 09:22:56;;;;;;;2.07;2.07;;;;;;;;;;6279822;28;20307;-69
2023/11/21 09:26:00;;;;;;;2.10;1.90;;;;;;;;;;6280477;28;20330;-72
2023/11/21 09:29:04;;;;;;;1.83;1.83;;;;;;;;;;6279351;28;20453;-69
2023/11/21 09:32:10;;;;;;;1.80;1.80;;;;;;;;;;6277982;28;20307;-67
2023/11/21 09:35:17;;;;;;;1.93;1.90;;;;;;;;;;6278128;28;20303;-70
2023/11/21 09:38:21;;;;;;;1.93;1.90;;;;;;;;;;6276466;28;20298;-69
2023/11/21 09:41:33;;;;;;;1.70;1.70;;;;;;;;;;6279390;28;20300;-69
2023/11/21 09:44:53;;;;;;;1.90;1.80;;;;;;;;;;6277392;28;20298;-70
2023/11/21 09:47:59;;;;;;;2.13;2.03;;;;;;;;;;6279837;28;20297;-69
2023/11/21 09:51:05;;;;;;;2.10;2.10;;;;;;;;;;6279611;28;20299;-69
2023/11/21 09:54:10;;;;;;;2.00;2.00;;;;;;;;;;6279301;28;20306;-69
2023/11/21 09:57:14;;;;;;;2.30;2.20;;;;;;;;;;6280155;28;20298;-71
2023/11/21 10:00:20;;;;;;;2.00;2.00;;;;;;;;;;6257961;28;20315;-69
2023/11/21 10:03:24;;;;;;;2.33;2.23;;;;;;;;;;6277857;28;20298;-70
2023/11/21 10:06:29;;;;;;;2.30;2.20;;;;;;;;;;6279534;28;20244;-71
2023/11/21 10:09:33;;;;;;;2.63;2.57;;;;;;;;;;6279794;28;20334;-69
2023/11/21 10:12:38;;;;;;;3.60;2.90;;;;;;;;;;6279004;28;20290;-69
2023/11/21 10:15:48;;;;;;;5.27;3.93;;;;;;;;;;6284931;28;20285;-69
2023/11/21 10:18:54;;;;;;;2.57;2.47;;;;;;;;;;6260299;28;20301;-69
2023/11/21 10:22:08;;;;;;;2.33;2.23;;;;;;;;;;6294427;28;20610;-69
2023/11/21 10:25:14;;;;;;;2.40;2.30;;;;;;;;;;6279297;28;22173;-69
2023/11/21 10:28:19;;;;;;;2.67;2.47;;;;;;;;;;6276240;28;20245;-70
2023/11/21 10:31:24;;;;;;;2.27;2.17;;;;;;;;;;6279035;28;20293;-71
2023/11/21 10:34:28;;;;;;;3.27;2.57;;;;;;;;;;6260803;28;20526;-69
2023/11/21 10:37:33;;;;;;;2.83;2.70;;;;;;;;;;6276230;28;20230;-70
2023/11/21 10:40:41;;;;;;;2.40;2.37;;;;;;;;;;6278806;28;20286;-69
2023/11/21 10:43:45;;;;;;;2.33;2.23;;;;;;;;;;6277742;28;20286;-69
2023/11/21 10:46:50;;;;;;;4.80;3.00;;;;;;;;;;6278509;28;20289;-70
2023/11/21 10:49:54;;;;;;;2.93;2.73;;;;;;;;;;6280799;28;20401;-70
2023/11/21 10:53:00;;;;;;;2.87;2.50;;;;;;;;;;6282722;28;20286;-69
2023/11/21 10:56:07;;;;;;;2.33;2.33;;;;;;;;;;6281151;28;20285;-69
2023/11/21 10:59:14;;;;;;;2.73;2.63;;;;;;;;;;6280366;28;20318;-70
2023/11/21 11:02:24;;;;;;;2.93;2.73;;;;;;;;;;6283005;28;20370;-69
2023/11/21 11:05:32;;;;;;;4.13;3.77;;;;;;;;;;6282204;28;20322;-69
2023/11/21 11:08:37;;;;;;;4.03;3.37;;;;;;;;;;6282762;28;20238;-70
2023/11/21 11:11:43;;;;;;;3.10;3.00;;;;;;;;;;6288701;28;20298;-70
2023/11/21 11:14:49;;;;;;;3.27;2.57;;;;;;;;;;6284145;28;20319;-69
2023/11/21 11:17:56;;;;;;;3.43;2.50;;;;;;;;;;6282583;28;20303;-69
2023/11/21 11:21:07;;;;;;;2.97;2.87;;;;;;;;;;6283016;28;20486;-69
2023/11/21 11:24:23;;;;;;;3.03;2.93;;;;;;;;;;6282115;28;20298;-70
2023/11/21 11:27:34;;;;;;;2.40;2.40;;;;;;;;;;6281736;28;20306;-69
2023/11/21 11:30:45;;;;;;;2.27;2.27;;;;;;;;;;6264869;28;20302;-71
2023/11/21 11:33:53;;;;;;;2.87;2.77;;;;;;;;;;6281581;28;20286;-70
2023/11/21 11:37:02;;;;;;;2.37;2.27;;;;;;;;;;6274961;28;20307;-70
2023/11/21 11:40:09;;;;;;;2.90;2.70;;;;;;;;;;6262131;28;20309;-70
2023/11/21 11:43:13;;;;;;;2.47;2.47;;;;;;;;;;6288763;28;20587;-70
2023/11/21 11:46:17;;;;;;;3.07;2.97;;;;;;;;;;6287674;28;20294;-69
2023/11/21 11:49:25;;;;;;;2.73;2.67;;;;;;;;;;6282433;28;20298;-69
2023/11/21 11:52:39;;;;;;;2.27;2.20;;;;;;;;;;6281720;28;20290;-69
2023/11/21 11:55:45;;;;;;;2.03;1.93;;;;;;;;;;6296408;28;20500;-71
2023/11/21 11:58:49;;;;;;;1.80;1.80;;;;;;;;;;6278737;28;20295;-69
2023/11/21 12:01:53;;;;;;;2.13;2.07;;;;;;;;;;6280201;28;20291;-69
2023/11/21 12:04:57;;;;;;;1.97;1.97;;;;;;;;;;6281397;28;20551;-68
2023/11/21 12:08:03;;;;;;;2.50;2.00;;;;;;;;;;6296313;28;20497;-68
2023/11/21 12:11:10;;;;;;;3.27;1.80;;;;;;;;;;6281939;28;20306;-70
2023/11/21 12:14:14;;;;;;;1.70;1.70;;;;;;;;;;6280928;28;20488;-67
2023/11/21 12:17:18;;;;;;;2.57;1.87;;;;;;;;;;6281464;28;20318;-70
2023/11/21 12:20:24;;;;;;;2.10;2.00;;;;;;;;;;6263109;28;20362;-68
2023/11/21 12:23:29;;;;;;;1.80;1.70;;;;;;;;;;6280795;28;20552;-69
2023/11/21 12:26:34;;;;;;;1.43;1.43;;;;;;;;;;6280671;28;20329;-69
2023/11/21 12:29:38;;;;;;;1.73;1.73;;;;;;;;;;6280607;28;20302;-68
2023/11/21 12:32:43;;;;;;;2.03;1.93;;;;;;;;;;6280284;28;20302;-70
2023/11/21 12:35:47;;;;;;;1.63;1.63;;;;;;;;;;6281727;28;20306;-69
2023/11/21 12:38:50;;;;;;;1.70;1.70;;;;;;;;;;6280442;28;20302;-69
2023/11/21 12:41:56;;;;;;;2.00;1.60;;;;;;;;;;6280449;28;20294;-69
2023/11/21 12:45:15;;;;;;;2.00;1.73;;;;;;;;;;6263711;28;20585;-69
2023/11/21 12:48:24;;;;;;;1.53;1.43;;;;;;;;;;6273589;28;20303;-71
2023/11/21 12:51:29;;;;;;;2.03;1.60;;;;;;;;;;6280789;28;20298;-68
2023/11/21 12:54:32;;;;;;;1.73;1.73;;;;;;;;;;6281249;28;20302;-69
2023/11/21 12:57:38;;;;;;;1.87;1.83;;;;;;;;;;6281430;28;20304;-69
2023/11/21 13:00:44;;;;;;;1.77;1.77;;;;;;;;;;6280553;28;20302;-68
2023/11/21 13:03:50;;;;;;;2.10;1.90;;;;;;;;;;6281065;28;20306;-68
2023/11/21 13:06:55;;;;;;;1.80;1.80;;;;;;;;;;6281462;28;20313;-69
2023/11/21 13:09:59;;;;;;;1.40;1.40;;;;;;;;;;6280255;28;20577;-70
2023/11/21 13:13:08;;;;;;;1.37;1.37;;;;;;;;;;6280834;28;20479;-68
2023/11/21 13:16:13;;;;;;;1.60;1.60;;;;;;;;;;6281774;28;20290;-69
2023/11/21 13:19:17;;;;;;;1.73;1.60;;;;;;;;;;6281388;28;20289;-69
2023/11/21 13:22:20;;;;;;;1.60;1.60;;;;;;;;;;6281469;28;20325;-69
2023/11/21 13:25:27;;;;;;;1.73;1.73;;;;;;;;;;6280388;28;20318;-70
2023/11/21 13:28:33;;;;;;;1.60;1.60;;;;;;;;;;6280712;28;20314;-68
2023/11/21 13:31:38;;;;;;;2.17;1.70;;;;;;;;;;6280721;28;20318;-68
2023/11/21 13:34:45;;;;;;;1.40;1.40;;;;;;;;;;6281155;28;20401;-69
2023/11/21 13:37:52;;;;;;;1.83;1.73;;;;;;;;;;6280282;28;20294;-69
2023/11/21 13:40:58;;;;;;;2.40;2.30;;;;;;;;;;6281184;28;20298;-69
2023/11/21 13:44:15;;;;;;;2.60;2.20;;;;;;;;;;6280902;28;20599;-69
2023/11/21 13:47:19;;;;;;;1.60;1.50;;;;;;;;;;6280545;28;20332;-69
2023/11/21 13:50:24;;;;;;;1.53;1.53;;;;;;;;;;6280061;28;20614;-68
2023/11/21 13:53:30;;;;;;;1.60;1.60;;;;;;;;;;6279561;28;20295;-72
2023/11/21 13:56:34;;;;;;;1.80;1.77;;;;;;;;;;6280925;28;20560;-69
2023/11/21 13:59:39;;;;;;;1.47;1.40;;;;;;;;;;6279184;28;20320;-68
2023/11/21 14:02:43;;;;;;;1.40;1.40;;;;;;;;;;6279833;28;20487;-69
2023/11/21 14:05:50;;;;;;;1.43;1.43;;;;;;;;;;6280302;28;20514;-69
2023/11/21 14:08:56;;;;;;;2.13;2.03;;;;;;;;;;6280806;28;20386;-70
2023/11/21 14:12:02;;;;;;;1.80;1.80;;;;;;;;;;6280457;28;20305;-69
2023/11/21 14:15:09;;;;;;;1.60;1.60;;;;;;;;;;6280042;28;20292;-68
2023/11/21 14:18:17;;;;;;;2.40;1.43;;;;;;;;;;6280719;28;20293;-70
2023/11/21 14:21:21;;;;;;;1.57;1.57;;;;;;;;;;6279846;28;20277;-69
2023/11/21 14:24:25;;;;;;;2.77;1.70;;;;;;;;;;6281322;28;20352;-70
2023/11/21 14:27:29;;;;;;;2.03;1.93;;;;;;;;;;6266009;28;20452;-69
2023/11/21 14:30:36;;;;;;;1.90;1.80;;;;;;;;;;6285472;28;20277;-68
2023/11/21 14:33:39;;;;;;;1.80;1.80;;;;;;;;;;6284281;28;20304;-68
2023/11/21 14:36:44;;;;;;;1.97;1.90;;;;;;;;;;6285180;28;20322;-68
2023/11/21 14:39:49;;;;;;;1.97;1.87;;;;;;;;;;6275093;28;20570;-67
2023/11/21 14:42:56;;;;;;;1.77;1.77;;;;;;;;;;6273664;28;20301;-68
2023/11/21 14:46:01;;;;;;;1.83;1.83;;;;;;;;;;6285261;28;20486;-68
2023/11/21 14:49:19;;;;;;;3.13;1.63;;;;;;;;;;6284938;28;20296;-69
2023/11/21 14:52:35;;;;;;;1.40;1.40;;;;;;;;;;6284997;28;20314;-69
2023/11/21 14:55:52;;;;;;;2.37;2.00;;;;;;;;;;6284024;28;20321;-73
2023/11/21 14:58:57;;;;;;;1.93;1.83;;;;;;;;;;6297590;28;20566;-71
2023/11/21 15:02:14;;;;;;;1.97;1.83;;;;;;;;;;6284356;28;20297;-69
2023/11/21 15:05:19;;;;;;;2.87;2.10;;;;;;;;;;6283876;28;20309;-74
2023/11/21 15:08:27;;;;;;;2.00;1.90;;;;;;;;;;6284389;28;20297;-69
2023/11/21 15:11:31;;;;;;;1.90;1.80;;;;;;;;;;6283964;28;20289;-68
2023/11/21 15:14:36;;;;;;;2.13;2.10;;;;;;;;;;6265615;28;20496;-68
2023/11/21 15:17:43;;;;;;;2.20;2.20;;;;;;;;;;6283186;28;20313;-69
2023/11/21 15:20:48;;;;;;;2.00;2.00;;;;;;;;;;6283957;28;20312;-69
2023/11/21 15:23:51;;;;;;;2.30;2.20;;;;;;;;;;6283624;28;20312;-69
2023/11/21 15:26:55;;;;;;;2.03;1.93;;;;;;;;;;6283839;28;20297;-68
2023/11/21 15:29:59;;;;;;;3.40;2.03;;;;;;;;;;6284088;28;20305;-71
2023/11/21 15:33:04;;;;;;;4.23;2.17;;;;;;;;;;6265508;28;20456;-70
2023/11/21 15:36:09;;;;;;;2.50;2.27;;;;;;;;;;6283514;28;20299;-69
2023/11/21 15:39:13;;;;;;;4.37;2.20;;;;;;;;;;6283723;28;20315;-69
2023/11/21 15:42:17;;;;;;;2.23;2.13;;;;;;;;;;6283388;28;20286;-68
2023/11/21 15:45:23;;;;;;;5.93;2.40;;;;;;;;;;6284324;28;20356;-69
2023/11/21 15:48:30;;;;;;;1.80;1.80;;;;;;;;;;6283624;28;20313;-69
2023/11/21 15:51:36;;;;;;;2.63;2.23;;;;;;;;;;6284398;28;20300;-70
2023/11/21 15:54:40;;;;;;;2.37;2.37;;;;;;;;;;6278498;28;20310;-69
2023/11/21 15:57:43;;;;;;;2.30;2.20;;;;;;;;;;6281758;28;21741;-77
2023/11/21 16:00:47;;;;;;;4.30;2.30;;;;;;;;;;6283859;28;20309;-69
2023/11/21 16:03:53;;;;;;;2.20;2.20;;;;;;;;;;6283615;28;20302;-70
2023/11/21 16:06:58;;;;;;;2.13;2.13;;;;;;;;;;6284011;28;20297;-70
2023/11/21 16:10:02;;;;;;;2.13;2.03;;;;;;;;;;6297812;28;20436;-70
2023/11/21 16:13:07;;;;;;;1.90;1.90;;;;;;;;;;6282617;28;20272;-69
2023/11/21 16:16:11;;;;;;;1.80;1.80;;;;;;;;;;6282718;28;20306;-70
2023/11/21 16:19:16;;;;;;;2.10;2.00;;;;;;;;;;6282135;28;20292;-69
2023/11/21 16:22:20;;;;;;;1.83;1.73;;;;;;;;;;6282374;28;20474;-69
2023/11/21 16:25:23;;;;;;;1.97;1.97;;;;;;;;;;6282296;28;20318;-69
2023/11/21 16:28:27;;;;;;;1.70;1.70;;;;;;;;;;6281508;28;20585;-69
2023/11/21 16:31:32;;;;;;;2.93;1.70;;;;;;;;;;6282025;28;20305;-69
2023/11/21 16:34:40;;;;;;;1.60;1.60;;;;;;;;;;6263492;28;20297;-71
2023/11/21 16:37:47;;;;;;;1.50;1.50;;;;;;;;;;6281533;28;20615;-70
2023/11/21 16:40:51;;;;;;;1.80;1.80;;;;;;;;;;6282092;28;20294;-69
2023/11/21 16:43:55;;;;;;;4.10;1.70;;;;;;;;;;6280971;28;20310;-70
2023/11/21 16:47:04;;;;;;;1.67;1.50;;;;;;;;;;6281855;28;20310;-70
2023/11/21 16:50:10;;;;;;;1.60;1.60;;;;;;;;;;6257601;28;20300;-69
2023/11/21 16:53:14;;;;;;;2.53;1.67;;;;;;;;;;6265975;28;20582;-72
2023/11/21 16:56:18;;;;;;;1.70;1.60;;;;;;;;;;6281711;28;20293;-72
2023/11/21 16:59:22;;;;;;;2.63;1.70;;;;;;;;;;6279745;28;20297;-69
2023/11/21 17:02:25;;;;;;;1.70;1.60;;;;;;;;;;6280962;28;20320;-67
2023/11/21 17:05:31;;;;;;;2.73;1.70;;;;;;;;;;6281536;28;20311;-68
2023/11/21 17:08:35;;;;;;;1.70;1.70;;;;;;;;;;6281180;28;20307;-69
2023/11/21 17:11:38;;;;;;;1.60;1.60;;;;;;;;;;6281091;28;20297;-69
2023/11/21 17:14:42;;;;;;;1.60;1.60;;;;;;;;;;6280781;28;20564;-69
2023/11/21 17:17:46;;;;;;;2.90;1.70;;;;;;;;;;6280545;28;20296;-70
2023/11/21 17:20:51;;;;;;;2.53;1.67;;;;;;;;;;6281234;28;20666;-68
2023/11/21 17:23:55;;;;;;;1.80;1.80;;;;;;;;;;6281235;28;20298;-69
2023/11/21 17:26:59;;;;;;;2.10;2.00;;;;;;;;;;6281322;28;20301;-71
2023/11/21 17:30:03;;;;;;;2.13;2.03;;;;;;;;;;6281007;28;20296;-69
2023/11/21 17:33:07;;;;;;;2.57;2.40;;;;;;;;;;6281189;28;20396;-70
2023/11/21 17:36:14;;;;;;;2.60;2.40;;;;;;;;;;6281288;28;20384;-69
2023/11/21 17:39:18;;;;;;;2.17;2.07;;;;;;;;;;6279705;28;20290;-69
2023/11/21 17:42:21;;;;;;;2.10;2.00;;;;;;;;;;6281388;28;20341;-71
2023/11/21 17:45:25;;;;;;;2.00;1.90;;;;;;;;;;6280035;28;20555;-69
2023/11/21 17:48:30;;;;;;;2.30;2.10;;;;;;;;;;6279657;28;20450;-70
2023/11/21 17:51:39;;;;;;;2.57;2.47;;;;;;;;;;6280969;28;20561;-70
2023/11/21 17:54:43;;;;;;;4.63;2.00;;;;;;;;;;6280411;28;20321;-70
2023/11/21 17:57:47;;;;;;;1.90;1.50;;;;;;;;;;6278163;28;20544;-70
2023/11/21 18:00:50;;;;;;;1.40;1.40;;;;;;;;;;6284940;28;20301;-72
2023/11/21 18:03:54;;;;;;;1.60;1.50;;;;;;;;;;6284989;28;20621;-69
2023/11/21 18:07:00;;;;;;;1.50;1.50;;;;;;;;;;6286157;28;20374;-68
2023/11/21 18:10:05;;;;;;;1.80;1.70;;;;;;;;;;6285571;28;20292;-71
2023/11/21 18:13:10;;;;;;;2.00;1.90;;;;;;;;;;6267289;28;20313;-69
2023/11/21 18:16:15;;;;;;;1.63;1.53;;;;;;;;;;6285859;28;20452;-69
2023/11/21 18:19:19;;;;;;;2.53;1.70;;;;;;;;;;6285466;28;20289;-69
2023/11/21 18:22:26;;;;;;;1.83;1.77;;;;;;;;;;6285321;28;20598;-69
2023/11/21 18:25:30;;;;;;;1.50;1.50;;;;;;;;;;6284670;28;20309;-69
2023/11/21 18:28:36;;;;;;;1.50;1.50;;;;;;;;;;6284734;28;20303;-71
2023/11/21 18:31:40;;;;;;;1.23;1.23;;;;;;;;;;6283064;28;20382;-70